sensor_id;sensor_type;location;lat;lon;timestamp;pressure;altitude;pressure_sealevel;temperature;humidity
4273;BME280;63887;53.656;9.810;2023-04-27T00:00:58;101873.19;;;3.69;83.02
4273;BME280;63887;53.656;9.810;2023-04-27T00:03:24;101870.50;;;3.78;82.90
4273;BME280;63887;53.656;9.810;2023-04-27T00:05:51;101871.59;;;3.51;84.47
4273;BME280;63887;53.656;9.810;2023-04-27T00:08:19;101868.94;;;3.56;84.43
4273;BME280;63887;53.656;9.810;2023-04-27T00:10:45;101869.84;;;3.53;84.21
4273;BME280;63887;53.656;9.810;2023-04-27T00:13:12;101863.88;;;3.44;85.58
4273;BME280;63887;53.656;9.810;2023-04-27T00:15:38;101866.50;;;3.39;85.40
4273;BME280;63887;53.656;9.810;2023-04-27T00:18:05;101868.25;;;3.36;85.82
4273;BME280;63887;53.656;9.810;2023-04-27T00:20:31;101863.91;;;3.42;85.35
4273;BME280;63887;53.656;9.810;2023-04-27T00:22:58;101862.16;;;3.44;85.91
4273;BME280;63887;53.656;9.810;2023-04-27T00:25:25;101861.28;;;3.45;85.48
4273;BME280;63887;53.656;9.810;2023-04-27T00:27:52;101859.69;;;3.29;86.62
4273;BME280;63887;53.656;9.810;2023-04-27T00:30:18;101857.06;;;3.32;86.09
4273;BME280;63887;53.656;9.810;2023-04-27T00:32:45;101856.28;;;3.18;87.59
4273;BME280;63887;53.656;9.810;2023-04-27T00:35:11;101855.47;;;3.13;87.61
4273;BME280;63887;53.656;9.810;2023-04-27T00:37:38;101852.00;;;3.09;87.68
4273;BME280;63887;53.656;9.810;2023-04-27T00:40:05;101860.63;;;3.17;87.45
4273;BME280;63887;53.656;9.810;2023-04-27T00:42:34;101865.75;;;3.23;86.38
4273;BME280;63887;53.656;9.810;2023-04-27T00:45:00;101869.19;;;3.24;86.76
4273;BME280;63887;53.656;9.810;2023-04-27T00:47:28;101864.03;;;3.22;86.23
4273;BME280;63887;53.656;9.810;2023-04-27T00:49:55;101866.59;;;3.25;86.10
4273;BME280;63887;53.656;9.810;2023-04-27T00:52:22;101865.84;;;3.13;86.58
4273;BME280;63887;53.656;9.810;2023-04-27T00:54:50;101867.56;;;3.11;87.47
4273;BME280;63887;53.656;9.810;2023-04-27T00:57:16;101870.16;;;3.09;87.71
4273;BME280;63887;53.656;9.810;2023-04-27T00:59:44;101878.00;;;2.94;89.19
4273;BME280;63887;53.656;9.810;2023-04-27T01:02:11;101880.59;;;2.94;88.81
4273;BME280;63887;53.656;9.810;2023-04-27T01:04:37;101875.44;;;2.91;88.96
4273;BME280;63887;53.656;9.810;2023-04-27T01:07:04;101878.97;;;2.84;89.96
4273;BME280;63887;53.656;9.810;2023-04-27T01:09:30;101882.38;;;2.87;89.34
4273;BME280;63887;53.656;9.810;2023-04-27T01:11:57;101883.22;;;2.89;89.48
4273;BME280;63887;53.656;9.810;2023-04-27T01:14:23;101883.22;;;2.91;89.74
4273;BME280;63887;53.656;9.810;2023-04-27T01:16:51;101890.16;;;2.86;88.46
4273;BME280;63887;53.656;9.810;2023-04-27T01:19:18;101894.50;;;2.85;89.05
4273;BME280;63887;53.656;9.810;2023-04-27T01:21:44;101877.06;;;3.13;88.14
4273;BME280;63887;53.656;9.810;2023-04-27T01:24:12;101884.84;;;3.09;87.46
4273;BME280;63887;53.656;9.810;2023-04-27T01:26:38;101884.03;;;2.96;88.91
4273;BME280;63887;53.656;9.810;2023-04-27T01:29:05;101890.06;;;3.04;87.54
4273;BME280;63887;53.656;9.810;2023-04-27T01:31:31;101892.75;;;2.89;88.72
4273;BME280;63887;53.656;9.810;2023-04-27T01:33:58;101895.34;;;2.86;88.82
4273;BME280;63887;53.656;9.810;2023-04-27T01:36:24;101890.84;;;3.20;87.52
4273;BME280;63887;53.656;9.810;2023-04-27T01:38:52;101895.25;;;3.03;88.17
4273;BME280;63887;53.656;9.810;2023-04-27T01:41:19;101890.88;;;3.14;87.46
4273;BME280;63887;53.656;9.810;2023-04-27T01:43:46;101913.34;;;3.12;88.04
4273;BME280;63887;53.656;9.810;2023-04-27T01:46:13;101915.06;;;3.14;87.99
4273;BME280;63887;53.656;9.810;2023-04-27T01:48:40;101920.88;;;3.51;85.98
4273;BME280;63887;53.656;9.810;2023-04-27T01:51:06;101921.00;;;3.35;87.17
4273;BME280;63887;53.656;9.810;2023-04-27T01:53:33;101924.44;;;3.35;87.19
4273;BME280;63887;53.656;9.810;2023-04-27T01:56:00;101934.00;;;3.30;88.13
4273;BME280;63887;53.656;9.810;2023-04-27T01:58:27;101931.97;;;3.75;85.21
4273;BME280;63887;53.656;9.810;2023-04-27T02:00:54;101925.06;;;3.72;85.87
4273;BME280;63887;53.656;9.810;2023-04-27T02:03:20;101931.81;;;3.92;85.20
4273;BME280;63887;53.656;9.810;2023-04-27T02:05:47;101923.25;;;3.80;85.07
4273;BME280;63887;53.656;9.810;2023-04-27T02:08:13;101928.53;;;3.70;85.81
4273;BME280;63887;53.656;9.810;2023-04-27T02:10:40;101920.75;;;3.70;85.67
4273;BME280;63887;53.656;9.810;2023-04-27T02:13:06;101922.50;;;3.65;86.30
4273;BME280;63887;53.656;9.810;2023-04-27T02:15:35;101919.97;;;3.58;86.69
4273;BME280;63887;53.656;9.810;2023-04-27T02:18:02;101926.81;;;3.69;86.55
4273;BME280;63887;53.656;9.810;2023-04-27T02:20:28;101932.09;;;3.55;87.73
4273;BME280;63887;53.656;9.810;2023-04-27T02:22:55;101923.53;;;3.45;88.86
4273;BME280;63887;53.656;9.810;2023-04-27T02:25:21;101920.97;;;3.42;88.87
4273;BME280;63887;53.656;9.810;2023-04-27T02:27:48;101926.03;;;3.59;88.49
4273;BME280;63887;53.656;9.810;2023-04-27T02:30:14;101926.88;;;3.56;87.50
4273;BME280;63887;53.656;9.810;2023-04-27T02:32:42;101919.03;;;3.66;86.70
4273;BME280;63887;53.656;9.810;2023-04-27T02:35:09;101931.28;;;3.48;87.55
4273;BME280;63887;53.656;9.810;2023-04-27T02:37:36;101933.97;;;3.33;88.32
4273;BME280;63887;53.656;9.810;2023-04-27T02:40:03;101928.81;;;3.30;88.24
4273;BME280;63887;53.656;9.810;2023-04-27T02:42:31;101927.09;;;3.26;87.50
4273;BME280;63887;53.656;9.810;2023-04-27T02:44:57;101931.34;;;3.36;87.42
4273;BME280;63887;53.656;9.810;2023-04-27T02:47:23;101924.50;;;3.29;88.24
4273;BME280;63887;53.656;9.810;2023-04-27T02:49:52;101914.03;;;3.40;87.91
4273;BME280;63887;53.656;9.810;2023-04-27T02:52:18;101931.47;;;3.16;88.16
4273;BME280;63887;53.656;9.810;2023-04-27T02:54:45;101928.09;;;2.97;89.23
4273;BME280;63887;53.656;9.810;2023-04-27T02:57:11;101933.34;;;2.88;89.40
4273;BME280;63887;53.656;9.810;2023-04-27T02:59:37;101929.91;;;2.82;89.37
4273;BME280;63887;53.656;9.810;2023-04-27T03:02:04;101926.38;;;3.03;88.56
4273;BME280;63887;53.656;9.810;2023-04-27T03:04:30;101931.59;;;2.89;89.06
4273;BME280;63887;53.656;9.810;2023-04-27T03:06:58;101937.69;;;2.77;88.75
4273;BME280;63887;53.656;9.810;2023-04-27T03:09:24;101943.81;;;2.56;91.15
4273;BME280;63887;53.656;9.810;2023-04-27T03:11:51;101936.03;;;2.56;91.48
4273;BME280;63887;53.656;9.810;2023-04-27T03:14:17;101935.06;;;2.91;89.24
4273;BME280;63887;53.656;9.810;2023-04-27T03:16:44;101939.47;;;2.71;90.28
4273;BME280;63887;53.656;9.810;2023-04-27T03:19:10;101942.06;;;2.61;90.85
4273;BME280;63887;53.656;9.810;2023-04-27T03:21:37;101939.47;;;2.63;90.19
4273;BME280;63887;53.656;9.810;2023-04-27T03:24:05;101940.34;;;2.57;90.99
4273;BME280;63887;53.656;9.810;2023-04-27T03:26:31;101939.50;;;2.55;90.68
4273;BME280;63887;53.656;9.810;2023-04-27T03:28:58;101942.09;;;2.55;91.35
4273;BME280;63887;53.656;9.810;2023-04-27T03:31:25;101936.88;;;2.60;90.34
4273;BME280;63887;53.656;9.810;2023-04-27T03:33:51;101937.75;;;2.62;90.01
4273;BME280;63887;53.656;9.810;2023-04-27T03:36:17;101931.72;;;2.52;90.57
4273;BME280;63887;53.656;9.810;2023-04-27T03:38:44;101936.94;;;2.42;91.72
4273;BME280;63887;53.656;9.810;2023-04-27T03:41:12;101942.06;;;2.69;90.04
4273;BME280;63887;53.656;9.810;2023-04-27T03:43:39;101934.34;;;2.54;90.27
4273;BME280;63887;53.656;9.810;2023-04-27T03:46:05;101937.75;;;2.62;89.76
4273;BME280;63887;53.656;9.810;2023-04-27T03:48:32;101941.25;;;2.44;90.73
4273;BME280;63887;53.656;9.810;2023-04-27T03:50:59;101946.41;;;2.50;90.76
4273;BME280;63887;53.656;9.810;2023-04-27T03:53:25;101944.69;;;2.49;90.88
4273;BME280;63887;53.656;9.810;2023-04-27T03:55:51;101955.91;;;2.45;91.17
4273;BME280;63887;53.656;9.810;2023-04-27T03:58:19;101955.94;;;2.39;91.54
4273;BME280;63887;53.656;9.810;2023-04-27T04:00:46;101957.63;;;2.52;91.56
4273;BME280;63887;53.656;9.810;2023-04-27T04:03:12;101955.91;;;2.47;92.08
4273;BME280;63887;53.656;9.810;2023-04-27T04:05:38;101959.31;;;2.67;91.11
4273;BME280;63887;53.656;9.810;2023-04-27T04:08:05;101958.41;;;2.79;90.58
4273;BME280;63887;53.656;9.810;2023-04-27T04:10:31;101957.59;;;2.63;91.38
4273;BME280;63887;53.656;9.810;2023-04-27T04:12:58;101965.28;;;2.90;90.32
4273;BME280;63887;53.656;9.810;2023-04-27T04:15:26;101965.31;;;2.87;90.86
4273;BME280;63887;53.656;9.810;2023-04-27T04:17:53;101962.59;;;3.15;89.86
4273;BME280;63887;53.656;9.810;2023-04-27T04:20:19;101961.69;;;3.20;89.00
4273;BME280;63887;53.656;9.810;2023-04-27T04:22:46;101968.56;;;3.26;89.52
4273;BME280;63887;53.656;9.810;2023-04-27T04:25:13;101963.41;;;3.23;89.20
4273;BME280;63887;53.656;9.810;2023-04-27T04:27:39;101967.72;;;3.28;88.84
4273;BME280;63887;53.656;9.810;2023-04-27T04:30:06;101965.13;;;3.28;90.08
4273;BME280;63887;53.656;9.810;2023-04-27T04:32:34;101978.09;;;3.22;89.80
4273;BME280;63887;53.656;9.810;2023-04-27T04:35:03;101975.50;;;3.28;89.55
4273;BME280;63887;53.656;9.810;2023-04-27T04:37:31;101968.56;;;3.26;89.60
4273;BME280;63887;53.656;9.810;2023-04-27T04:39:58;101971.16;;;3.26;90.09
4273;BME280;63887;53.656;9.810;2023-04-27T04:42:24;101964.25;;;3.31;89.58
4273;BME280;63887;53.656;9.810;2023-04-27T04:44:51;101971.97;;;3.39;89.57
4273;BME280;63887;53.656;9.810;2023-04-27T04:47:18;101969.34;;;3.40;88.56
4273;BME280;63887;53.656;9.810;2023-04-27T04:49:45;101971.97;;;3.43;88.87
4273;BME280;63887;53.656;9.810;2023-04-27T04:52:12;101979.69;;;3.48;88.01
4273;BME280;63887;53.656;9.810;2023-04-27T04:54:38;101984.19;;;3.18;89.52
4273;BME280;63887;53.656;9.810;2023-04-27T04:57:05;101978.13;;;3.21;90.24
4273;BME280;63887;53.656;9.810;2023-04-27T04:59:32;101974.53;;;3.42;89.34
4273;BME280;63887;53.656;9.810;2023-04-27T05:01:58;101979.81;;;3.29;89.65
4273;BME280;63887;53.656;9.810;2023-04-27T05:04:25;101986.66;;;3.37;89.28
4273;BME280;63887;53.656;9.810;2023-04-27T05:06:52;101986.66;;;3.44;89.22
4273;BME280;63887;53.656;9.810;2023-04-27T05:09:19;101981.28;;;3.73;88.27
4273;BME280;63887;53.656;9.810;2023-04-27T05:11:45;101990.91;;;3.53;88.84
4273;BME280;63887;53.656;9.810;2023-04-27T05:14:12;101985.72;;;3.53;88.69
4273;BME280;63887;53.656;9.810;2023-04-27T05:16:38;101983.88;;;3.69;87.84
4273;BME280;63887;53.656;9.810;2023-04-27T05:19:05;101988.19;;;3.74;88.48
4273;BME280;63887;53.656;9.810;2023-04-27T05:21:32;101985.44;;;3.94;88.25
4273;BME280;63887;53.656;9.810;2023-04-27T05:24:00;101982.09;;;3.78;88.64
4273;BME280;63887;53.656;9.810;2023-04-27T05:26:26;101987.13;;;3.98;87.37
4273;BME280;63887;53.656;9.810;2023-04-27T05:28:53;101989.22;;;4.55;85.75
4273;BME280;63887;53.656;9.810;2023-04-27T05:31:19;101987.84;;;5.00;83.54
4273;BME280;63887;53.656;9.810;2023-04-27T05:33:46;101991.56;;;4.79;83.86
4273;BME280;63887;53.656;9.810;2023-04-27T05:36:12;101985.38;;;5.57;79.58
4273;BME280;63887;53.656;9.810;2023-04-27T05:38:39;101993.81;;;5.09;80.97
4273;BME280;63887;53.656;9.810;2023-04-27T05:41:07;101992.13;;;5.07;82.79
4273;BME280;63887;53.656;9.810;2023-04-27T05:43:33;101985.13;;;5.74;80.14
4273;BME280;63887;53.656;9.810;2023-04-27T05:46:02;101983.63;;;6.16;78.17
4273;BME280;63887;53.656;9.810;2023-04-27T05:48:28;101985.94;;;5.77;79.35
4273;BME280;63887;53.656;9.810;2023-04-27T05:50:58;101985.50;;;6.06;76.68
4273;BME280;63887;53.656;9.810;2023-04-27T05:53:25;101989.78;;;6.61;75.53
4273;BME280;63887;53.656;9.810;2023-04-27T05:55:51;101989.34;;;7.26;72.99
4273;BME280;63887;53.656;9.810;2023-04-27T05:58:19;101991.19;;;8.33;71.23
4273;BME280;63887;53.656;9.810;2023-04-27T06:00:46;101991.72;;;10.73;64.08
4273;BME280;63887;53.656;9.810;2023-04-27T06:03:12;101980.78;;;12.80;52.44
4273;BME280;63887;53.656;9.810;2023-04-27T06:05:38;101980.50;;;15.17;47.47
4273;BME280;63887;53.656;9.810;2023-04-27T06:08:05;101984.69;;;14.55;46.43
4273;BME280;63887;53.656;9.810;2023-04-27T06:10:31;101983.41;;;14.11;47.21
4273;BME280;63887;53.656;9.810;2023-04-27T06:12:58;101989.53;;;15.13;43.93
4273;BME280;63887;53.656;9.810;2023-04-27T06:15:26;101983.34;;;14.12;46.73
4273;BME280;63887;53.656;9.810;2023-04-27T06:17:52;101980.09;;;17.34;39.63
4273;BME280;63887;53.656;9.810;2023-04-27T06:20:19;101986.22;;;15.41;42.03
4273;BME280;63887;53.656;9.810;2023-04-27T06:22:45;101985.22;;;15.44;42.29
4273;BME280;63887;53.656;9.810;2023-04-27T06:25:12;101990.69;;;16.62;40.85
4273;BME280;63887;53.656;9.810;2023-04-27T06:27:38;101991.78;;;16.88;40.51
4273;BME280;63887;53.656;9.810;2023-04-27T06:30:06;101988.78;;;17.91;38.04
4273;BME280;63887;53.656;9.810;2023-04-27T06:32:34;101992.09;;;17.12;39.89
4273;BME280;63887;53.656;9.810;2023-04-27T06:35:00;101983.72;;;17.18;39.75
4273;BME280;63887;53.656;9.810;2023-04-27T06:37:27;101971.19;;;21.50;30.54
4273;BME280;63887;53.656;9.810;2023-04-27T06:39:53;101968.13;;;23.22;28.19
4273;BME280;63887;53.656;9.810;2023-04-27T06:42:20;101965.78;;;19.31;34.04
4273;BME280;63887;53.656;9.810;2023-04-27T06:44:46;101969.03;;;19.11;36.08
4273;BME280;63887;53.656;9.810;2023-04-27T06:47:13;101966.88;;;19.53;33.47
4273;BME280;63887;53.656;9.810;2023-04-27T06:49:41;101959.44;;;17.80;37.44
4273;BME280;63887;53.656;9.810;2023-04-27T06:52:07;101973.53;;;19.71;34.72
4273;BME280;63887;53.656;9.810;2023-04-27T06:54:33;101983.44;;;21.08;31.24
4273;BME280;63887;53.656;9.810;2023-04-27T06:57:00;101988.66;;;20.53;31.72
4273;BME280;63887;53.656;9.810;2023-04-27T06:59:27;101990.84;;;20.71;31.49
4273;BME280;63887;53.656;9.810;2023-04-27T07:01:53;101997.34;;;20.09;32.65
4273;BME280;63887;53.656;9.810;2023-04-27T07:04:20;102002.50;;;21.14;30.88
4273;BME280;63887;53.656;9.810;2023-04-27T07:06:48;101995.53;;;20.45;32.35
4273;BME280;63887;53.656;9.810;2023-04-27T07:09:14;102008.88;;;19.73;33.20
4273;BME280;63887;53.656;9.810;2023-04-27T07:11:41;102008.69;;;18.51;35.06
4273;BME280;63887;53.656;9.810;2023-04-27T07:14:07;102012.97;;;18.66;35.43
4273;BME280;63887;53.656;9.810;2023-04-27T07:16:33;102007.06;;;17.54;35.92
4273;BME280;63887;53.656;9.810;2023-04-27T07:19:00;102015.34;;;15.73;40.20
4273;BME280;63887;53.656;9.810;2023-04-27T07:21:26;102006.28;;;16.38;38.83
4273;BME280;63887;53.656;9.810;2023-04-27T07:23:55;102024.34;;;14.71;42.25
4273;BME280;63887;53.656;9.810;2023-04-27T07:26:21;102027.34;;;13.38;46.81
4273;BME280;63887;53.656;9.810;2023-04-27T07:28:49;102022.63;;;12.46;49.11
4273;BME280;63887;53.656;9.810;2023-04-27T07:31:15;102036.97;;;11.73;51.27
4273;BME280;63887;53.656;9.810;2023-04-27T07:33:42;102037.69;;;11.08;56.14
4273;BME280;63887;53.656;9.810;2023-04-27T07:36:09;102033.03;;;11.40;54.14
4273;BME280;63887;53.656;9.810;2023-04-27T07:38:35;102028.78;;;11.59;53.90
4273;BME280;63887;53.656;9.810;2023-04-27T07:41:04;102027.44;;;11.25;53.42
4273;BME280;63887;53.656;9.810;2023-04-27T07:43:31;102032.63;;;11.03;56.62
4273;BME280;63887;53.656;9.810;2023-04-27T07:45:58;102030.63;;;10.85;56.49
4273;BME280;63887;53.656;9.810;2023-04-27T07:48:24;102029.53;;;11.39;54.34
4273;BME280;63887;53.656;9.810;2023-04-27T07:50:50;102030.53;;;11.37;56.48
4273;BME280;63887;53.656;9.810;2023-04-27T07:53:17;102025.41;;;11.55;53.40
4273;BME280;63887;53.656;9.810;2023-04-27T07:55:44;102030.84;;;11.96;53.15
4273;BME280;63887;53.656;9.810;2023-04-27T07:58:12;102030.00;;;11.96;52.71
4273;BME280;63887;53.656;9.810;2023-04-27T08:00:38;102024.69;;;11.97;53.60
4273;BME280;63887;53.656;9.810;2023-04-27T08:03:05;102031.00;;;11.70;50.87
4273;BME280;63887;53.656;9.810;2023-04-27T08:05:31;102022.00;;;11.53;52.93
4273;BME280;63887;53.656;9.810;2023-04-27T08:07:58;102019.13;;;11.59;53.08
4273;BME280;63887;53.656;9.810;2023-04-27T08:10:24;102025.19;;;10.91;53.45
4273;BME280;63887;53.656;9.810;2023-04-27T08:12:51;102012.09;;;11.83;52.18
4273;BME280;63887;53.656;9.810;2023-04-27T08:15:19;102018.47;;;11.76;49.15
4273;BME280;63887;53.656;9.810;2023-04-27T08:17:45;102021.31;;;11.48;49.23
4273;BME280;63887;53.656;9.810;2023-04-27T08:20:12;102018.16;;;11.62;49.84
4273;BME280;63887;53.656;9.810;2023-04-27T08:22:38;102018.56;;;11.51;50.79
4273;BME280;63887;53.656;9.810;2023-04-27T08:25:06;102022.97;;;11.04;50.33
4273;BME280;63887;53.656;9.810;2023-04-27T08:27:33;102020.66;;;11.20;51.62
4273;BME280;63887;53.656;9.810;2023-04-27T08:30:02;102024.66;;;10.82;53.77
4273;BME280;63887;53.656;9.810;2023-04-27T08:32:30;102022.69;;;11.12;52.92
4273;BME280;63887;53.656;9.810;2023-04-27T08:34:56;102006.28;;;11.52;50.35
4273;BME280;63887;53.656;9.810;2023-04-27T08:37:22;102010.03;;;11.46;52.43
4273;BME280;63887;53.656;9.810;2023-04-27T08:39:49;102013.44;;;11.48;51.37
4273;BME280;63887;53.656;9.810;2023-04-27T08:42:15;102005.81;;;11.64;51.43
4273;BME280;63887;53.656;9.810;2023-04-27T08:44:43;102003.59;;;11.75;50.98
4273;BME280;63887;53.656;9.810;2023-04-27T08:47:09;102000.59;;;11.86;52.76
4273;BME280;63887;53.656;9.810;2023-04-27T08:49:37;102003.44;;;12.23;49.78
4273;BME280;63887;53.656;9.810;2023-04-27T08:52:09;102001.81;;;12.19;47.55
4273;BME280;63887;53.656;9.810;2023-04-27T08:54:36;101999.66;;;12.09;45.89
4273;BME280;63887;53.656;9.810;2023-04-27T08:57:07;102003.59;;;11.31;51.09
4273;BME280;63887;53.656;9.810;2023-04-27T08:59:34;101996.25;;;11.40;49.98
4273;BME280;63887;53.656;9.810;2023-04-27T09:02:02;102009.63;;;11.33;52.84
4273;BME280;63887;53.656;9.810;2023-04-27T09:04:35;102007.16;;;11.05;51.06
4273;BME280;63887;53.656;9.810;2023-04-27T09:07:10;102000.88;;;11.33;51.54
4273;BME280;63887;53.656;9.810;2023-04-27T09:09:37;101995.66;;;11.55;50.14
4273;BME280;63887;53.656;9.810;2023-04-27T09:12:13;101996.31;;;11.38;51.23
4273;BME280;63887;53.656;9.810;2023-04-27T09:14:39;102003.22;;;11.41;53.65
4273;BME280;63887;53.656;9.810;2023-04-27T09:17:06;101999.78;;;11.62;48.72
4273;BME280;63887;53.656;9.810;2023-04-27T09:19:33;101998.59;;;11.69;46.14
4273;BME280;63887;53.656;9.810;2023-04-27T09:22:04;102004.50;;;11.52;49.26
4273;BME280;63887;53.656;9.810;2023-04-27T09:24:32;102005.25;;;11.79;47.04
4273;BME280;63887;53.656;9.810;2023-04-27T09:26:59;102001.84;;;11.76;45.61
4273;BME280;63887;53.656;9.810;2023-04-27T09:29:35;102005.06;;;11.60;44.98
4273;BME280;63887;53.656;9.810;2023-04-27T09:32:13;101993.84;;;12.01;44.00
4273;BME280;63887;53.656;9.810;2023-04-27T09:34:41;101996.59;;;11.98;44.55
4273;BME280;63887;53.656;9.810;2023-04-27T09:37:08;102003.78;;;11.49;47.02
4273;BME280;63887;53.656;9.810;2023-04-27T09:39:36;102011.78;;;11.46;44.75
4273;BME280;63887;53.656;9.810;2023-04-27T09:42:03;102010.03;;;10.74;44.29
4273;BME280;63887;53.656;9.810;2023-04-27T09:44:30;101997.63;;;11.50;43.72
4273;BME280;63887;53.656;9.810;2023-04-27T09:46:57;101989.88;;;11.23;47.00
4273;BME280;63887;53.656;9.810;2023-04-27T09:49:26;101990.13;;;11.39;47.53
4273;BME280;63887;53.656;9.810;2023-04-27T09:51:54;101976.59;;;11.72;44.52
4273;BME280;63887;53.656;9.810;2023-04-27T09:54:26;101984.16;;;11.57;43.09
4273;BME280;63887;53.656;9.810;2023-04-27T09:57:02;101982.03;;;11.67;44.22
4273;BME280;63887;53.656;9.810;2023-04-27T09:59:44;101983.72;;;11.91;40.86
4273;BME280;63887;53.656;9.810;2023-04-27T10:02:15;101978.69;;;12.07;44.45
4273;BME280;63887;53.656;9.810;2023-04-27T10:04:56;101977.06;;;11.83;44.71
4273;BME280;63887;53.656;9.810;2023-04-27T10:07:28;101988.91;;;11.93;43.96
4273;BME280;63887;53.656;9.810;2023-04-27T10:10:00;101984.34;;;11.75;44.59
4273;BME280;63887;53.656;9.810;2023-04-27T10:12:33;101988.63;;;11.33;48.65
4273;BME280;63887;53.656;9.810;2023-04-27T10:15:11;101985.78;;;11.61;47.21
4273;BME280;63887;53.656;9.810;2023-04-27T10:17:38;101992.81;;;11.61;46.51
4273;BME280;63887;53.656;9.810;2023-04-27T10:20:11;101999.31;;;11.96;46.15
4273;BME280;63887;53.656;9.810;2023-04-27T10:22:39;101997.66;;;11.93;44.17
4273;BME280;63887;53.656;9.810;2023-04-27T10:25:15;101994.00;;;11.52;45.39
4273;BME280;63887;53.656;9.810;2023-04-27T10:27:47;101995.44;;;11.83;42.92
4273;BME280;63887;53.656;9.810;2023-04-27T10:30:17;101993.03;;;12.20;41.03
4273;BME280;63887;53.656;9.810;2023-04-27T10:32:51;102007.94;;;12.20;43.78
4273;BME280;63887;53.656;9.810;2023-04-27T10:35:19;102011.19;;;12.05;43.23
4273;BME280;63887;53.656;9.810;2023-04-27T10:37:45;102004.25;;;11.82;46.04
4273;BME280;63887;53.656;9.810;2023-04-27T10:40:13;102011.97;;;12.08;43.75
4273;BME280;63887;53.656;9.810;2023-04-27T10:42:42;102012.88;;;12.07;44.83
4273;BME280;63887;53.656;9.810;2023-04-27T10:45:10;102005.22;;;12.23;44.51
4273;BME280;63887;53.656;9.810;2023-04-27T10:47:39;102012.38;;;12.40;44.72
4273;BME280;63887;53.656;9.810;2023-04-27T10:50:07;102018.06;;;12.09;48.24
4273;BME280;63887;53.656;9.810;2023-04-27T10:52:35;102013.72;;;11.86;48.18
4273;BME280;63887;53.656;9.810;2023-04-27T10:55:14;102023.50;;;11.59;50.63
4273;BME280;63887;53.656;9.810;2023-04-27T10:57:48;102014.25;;;11.72;51.08
4273;BME280;63887;53.656;9.810;2023-04-27T11:00:21;102018.00;;;12.10;50.99
4273;BME280;63887;53.656;9.810;2023-04-27T11:02:49;102014.75;;;12.46;47.29
4273;BME280;63887;53.656;9.810;2023-04-27T11:05:17;102008.38;;;12.51;50.13
4273;BME280;63887;53.656;9.810;2023-04-27T11:07:44;102010.81;;;12.56;47.28
4273;BME280;63887;53.656;9.810;2023-04-27T11:10:14;102004.22;;;12.46;48.05
4273;BME280;63887;53.656;9.810;2023-04-27T11:12:41;102016.13;;;11.92;47.05
4273;BME280;63887;53.656;9.810;2023-04-27T11:15:08;102010.81;;;12.36;46.30
4273;BME280;63887;53.656;9.810;2023-04-27T11:17:36;102015.78;;;11.78;50.16
4273;BME280;63887;53.656;9.810;2023-04-27T11:20:03;102022.91;;;12.40;50.55
4273;BME280;63887;53.656;9.810;2023-04-27T11:22:31;102018.97;;;12.70;45.60
4273;BME280;63887;53.656;9.810;2023-04-27T11:24:58;102017.53;;;12.83;45.00
4273;BME280;63887;53.656;9.810;2023-04-27T11:27:35;102022.59;;;12.68;46.58
4273;BME280;63887;53.656;9.810;2023-04-27T11:30:02;102017.69;;;12.18;48.66
4273;BME280;63887;53.656;9.810;2023-04-27T11:32:29;102012.53;;;12.57;45.86
4273;BME280;63887;53.656;9.810;2023-04-27T11:34:57;102008.56;;;12.47;47.88
4273;BME280;63887;53.656;9.810;2023-04-27T11:37:25;102014.75;;;12.04;48.40
4273;BME280;63887;53.656;9.810;2023-04-27T11:39:53;102021.47;;;11.67;48.36
4273;BME280;63887;53.656;9.810;2023-04-27T11:42:22;102014.19;;;12.17;48.47
4273;BME280;63887;53.656;9.810;2023-04-27T11:44:53;102024.41;;;12.25;49.53
4273;BME280;63887;53.656;9.810;2023-04-27T11:47:20;102013.72;;;12.08;50.23
4273;BME280;63887;53.656;9.810;2023-04-27T11:49:47;102013.03;;;12.03;48.62
4273;BME280;63887;53.656;9.810;2023-04-27T11:52:15;102017.78;;;12.37;48.75
4273;BME280;63887;53.656;9.810;2023-04-27T11:54:46;102019.81;;;12.30;48.11
4273;BME280;63887;53.656;9.810;2023-04-27T11:57:13;102023.50;;;11.82;49.70
4273;BME280;63887;53.656;9.810;2023-04-27T11:59:39;102015.47;;;11.63;51.65
4273;BME280;63887;53.656;9.810;2023-04-27T12:02:06;102024.94;;;11.91;49.19
4273;BME280;63887;53.656;9.810;2023-04-27T12:04:33;102024.78;;;12.16;46.70
4273;BME280;63887;53.656;9.810;2023-04-27T12:07:00;102026.59;;;11.93;48.88
4273;BME280;63887;53.656;9.810;2023-04-27T12:09:29;102021.38;;;11.92;46.81
4273;BME280;63887;53.656;9.810;2023-04-27T12:11:55;102019.13;;;11.83;46.81
4273;BME280;63887;53.656;9.810;2023-04-27T12:14:22;102018.31;;;11.81;47.86
4273;BME280;63887;53.656;9.810;2023-04-27T12:16:48;102025.03;;;11.88;48.62
4273;BME280;63887;53.656;9.810;2023-04-27T12:19:15;102018.25;;;11.82;48.87
4273;BME280;63887;53.656;9.810;2023-04-27T12:21:41;102024.59;;;11.77;48.39
4273;BME280;63887;53.656;9.810;2023-04-27T12:24:08;102026.34;;;12.20;48.82
4273;BME280;63887;53.656;9.810;2023-04-27T12:26:36;102027.31;;;12.39;45.21
4273;BME280;63887;53.656;9.810;2023-04-27T12:29:02;102023.25;;;11.88;48.72
4273;BME280;63887;53.656;9.810;2023-04-27T12:31:29;102023.63;;;12.23;47.36
4273;BME280;63887;53.656;9.810;2023-04-27T12:33:55;102029.53;;;12.48;46.19
4273;BME280;63887;53.656;9.810;2023-04-27T12:36:22;102024.97;;;12.53;46.05
4273;BME280;63887;53.656;9.810;2023-04-27T12:38:48;102024.63;;;12.61;46.46
4273;BME280;63887;53.656;9.810;2023-04-27T12:41:15;102034.06;;;12.24;46.81
4273;BME280;63887;53.656;9.810;2023-04-27T12:43:43;102030.19;;;11.91;49.40
4273;BME280;63887;53.656;9.810;2023-04-27T12:46:10;102032.25;;;11.83;49.92
4273;BME280;63887;53.656;9.810;2023-04-27T12:48:37;102025.59;;;11.73;51.37
4273;BME280;63887;53.656;9.810;2023-04-27T12:51:04;102043.06;;;11.52;51.01
4273;BME280;63887;53.656;9.810;2023-04-27T12:53:31;102045.03;;;11.69;52.91
4273;BME280;63887;53.656;9.810;2023-04-27T12:55:58;102043.31;;;11.46;55.77
4273;BME280;63887;53.656;9.810;2023-04-27T12:58:26;102045.25;;;11.64;53.98
4273;BME280;63887;53.656;9.810;2023-04-27T13:00:56;102040.00;;;11.86;50.81
4273;BME280;63887;53.656;9.810;2023-04-27T13:03:22;102045.44;;;11.58;52.72
4273;BME280;63887;53.656;9.810;2023-04-27T13:05:49;102041.13;;;11.80;50.99